Time;durP1;ratioP1;P1;durP2;ratioP2;P2;SDS_P1;SDS_P2;PMS_P1;PMS_P2;Temp;Humidity;BMP_temperature;BMP_pressure;BME280_temperature;BME280_humidity;BME280_pressure;Samples;Min_cycle;Max_cycle;Signal;HPM_P1;HPM_P2
2022/10/08 00:00:43;;;;;;;16.43;13.27;;;;;;;14.54;100.00;155095.03;5033489;28;20435;-87
2022/10/08 00:03:10;;;;;;;26.93;14.20;;;;;;;14.51;100.00;155088.53;5016061;28;20440;-86
2022/10/08 00:05:36;;;;;;;15.97;13.17;;;;;;;14.51;100.00;155088.53;5016082;28;20439;-86
2022/10/08 00:08:03;;;;;;;16.73;13.30;;;;;;;14.48;100.00;155080.72;5033001;28;20578;-86
2022/10/08 00:10:31;;;;;;;13.43;12.13;;;;;;;14.47;100.00;155078.16;5032299;28;20527;-87
2022/10/08 00:12:58;;;;;;;15.10;12.80;;;;;;;14.46;100.00;155075.53;5016918;28;20443;-86
2022/10/08 00:15:26;;;;;;;14.73;12.77;;;;;;;14.42;100.00;155063.88;5015872;28;20427;-86
2022/10/08 00:17:53;;;;;;;13.53;12.07;;;;;;;14.41;100.00;155062.56;5016068;28;20828;-86
2022/10/08 00:20:21;;;;;;;13.70;12.30;;;;;;;14.35;100.00;155045.72;5033652;28;20961;-86
2022/10/08 00:22:48;;;;;;;14.33;12.33;;;;;;;14.33;100.00;155041.78;5015911;28;20497;-86
2022/10/08 00:25:15;;;;;;;14.53;12.40;;;;;;;14.32;100.00;155039.16;5033937;28;20436;-87
2022/10/08 00:27:41;;;;;;;13.73;11.50;;;;;;;14.32;100.00;155037.91;5016143;28;20480;-86
2022/10/08 00:30:09;;;;;;;12.13;10.87;;;;;;;14.30;100.00;155033.94;5032488;28;20436;-86
2022/10/08 00:32:37;;;;;;;13.00;11.60;;;;;;;14.27;100.00;155026.13;5016240;28;20458;-87
2022/10/08 00:35:04;;;;;;;13.40;12.10;;;;;;;14.24;100.00;155018.38;5016685;28;20450;-87
2022/10/08 00:37:31;;;;;;;13.53;11.77;;;;;;;14.23;100.00;155015.78;5016394;28;20475;-86
2022/10/08 00:39:57;;;;;;;13.70;10.50;;;;;;;14.21;100.00;155009.28;5034725;28;20424;-86
2022/10/08 00:42:24;;;;;;;12.70;11.40;;;;;;;14.20;100.00;155007.97;5019808;28;20455;-87
2022/10/08 00:44:54;;;;;;;16.00;12.33;;;;;;;14.16;100.00;154997.59;5037563;28;20510;-86
2022/10/08 00:47:28;;;;;;;14.97;11.60;;;;;;;14.19;100.00;155004.09;5037881;28;20466;-86
2022/10/08 00:49:59;;;;;;;12.97;11.67;;;;;;;14.15;100.00;154993.69;5037323;28;20439;-86
2022/10/08 00:52:27;;;;;;;13.60;11.93;;;;;;;14.15;100.00;154995.00;5037605;28;20755;-87
2022/10/08 00:54:54;;;;;;;15.80;11.27;;;;;;;14.16;100.00;154996.31;5037884;28;20755;-86
2022/10/08 00:57:21;;;;;;;15.10;12.43;;;;;;;14.12;100.00;154987.19;5057638;28;20506;-87
2022/10/08 00:59:48;;;;;;;15.13;12.30;;;;;;;14.12;100.00;154987.19;5056912;28;20957;-86
2022/10/08 01:02:15;;;;;;;14.00;11.63;;;;;;;14.10;100.00;154982.03;5039022;28;20478;-86
2022/10/08 01:04:42;;;;;;;14.93;11.50;;;;;;;14.06;100.00;154971.59;5039207;28;20493;-87
2022/10/08 01:07:15;;;;;;;13.20;11.40;;;;;;;14.04;100.00;154966.41;5057553;28;20445;-86
2022/10/08 01:09:47;;;;;;;14.23;11.57;;;;;;;14.05;100.00;154969.03;5026854;28;20554;-86
2022/10/08 01:12:22;;;;;;;16.80;12.97;;;;;;;14.04;100.00;154966.41;5021384;28;20821;-86
2022/10/08 01:14:56;;;;;;;13.57;12.10;;;;;;;14.03;100.00;154963.84;5022209;28;20438;-86
2022/10/08 01:17:27;;;;;;;15.13;11.73;;;;;;;14.01;100.00;154958.63;5021797;28;20475;-86
2022/10/08 01:20:04;;;;;;;12.70;11.50;;;;;;;13.98;100.00;154952.13;5021364;28;20436;-87
2022/10/08 01:22:47;;;;;;;13.17;11.97;;;;;;;14.01;100.00;154959.94;5022095;28;20449;-86
2022/10/08 01:25:32;;;;;;;11.97;10.80;;;;;;;14.03;100.00;154963.84;5022529;28;20442;-86
2022/10/08 01:28:04;;;;;;;12.50;10.43;;;;;;;14.03;100.00;154963.84;5040109;28;20876;-86
2022/10/08 01:30:34;;;;;;;15.07;12.00;;;;;;;14.02;100.00;154961.25;5064670;28;20419;-86
2022/10/08 01:33:03;;;;;;;13.20;11.80;;;;;;;13.99;100.00;154954.75;5043004;28;20454;-86
2022/10/08 01:35:32;;;;;;;11.90;10.70;;;;;;;13.98;100.00;154950.81;5041840;28;20446;-86
2022/10/08 01:38:01;;;;;;;14.57;11.97;;;;;;;13.98;100.00;154952.13;5041484;28;20484;-86
2022/10/08 01:40:31;;;;;;;11.90;10.73;;;;;;;13.98;100.00;154950.81;5042828;28;20846;-86
2022/10/08 01:42:59;;;;;;;13.47;11.80;;;;;;;13.98;100.00;154950.81;5043843;28;20431;-86
2022/10/08 01:45:31;;;;;;;13.03;11.53;;;;;;;13.98;100.00;154952.13;5024593;28;20442;-86
2022/10/08 01:47:59;;;;;;;12.90;11.50;;;;;;;14.00;100.00;154957.31;5040715;28;20488;-86
2022/10/08 01:50:30;;;;;;;13.03;11.03;;;;;;;14.00;100.00;154957.31;5039931;28;20435;-86
2022/10/08 01:53:00;;;;;;;13.83;11.70;;;;;;;13.99;100.00;154954.75;5059513;28;20977;-86
2022/10/08 01:55:31;;;;;;;12.57;11.37;;;;;;;13.98;100.00;154950.81;5040212;28;20459;-86
2022/10/08 01:58:02;;;;;;;13.10;10.67;;;;;;;13.98;100.00;154950.81;5040890;28;20517;-86
2022/10/08 02:00:33;;;;;;;14.77;10.27;;;;;;;13.99;100.00;154953.44;5023488;28;20444;-87
2022/10/08 02:03:00;;;;;;;12.40;11.10;;;;;;;13.99;100.00;154954.75;5023238;28;20451;-86
2022/10/08 02:05:29;;;;;;;13.50;12.10;;;;;;;14.02;100.00;154962.56;5040306;28;20424;-86
2022/10/08 02:07:55;;;;;;;14.27;12.07;;;;;;;14.07;100.00;154974.22;5039643;28;20416;-86
2022/10/08 02:10:23;;;;;;;15.43;12.23;;;;;;;14.07;100.00;154974.22;5033660;28;20541;-86
2022/10/08 02:12:50;;;;;;;18.03;11.90;;;;;;;14.09;100.00;154979.41;5026791;28;20821;-86
2022/10/08 02:15:18;;;;;;;14.63;12.10;;;;;;;14.12;100.00;154985.88;5038146;28;20460;-87
2022/10/08 02:17:56;;;;;;;12.80;11.60;;;;;;;14.12;100.00;154987.19;5037049;28;20464;-87
2022/10/08 02:20:28;;;;;;;13.10;11.80;;;;;;;14.12;100.00;154985.88;5034757;28;20440;-86
2022/10/08 02:22:59;;;;;;;14.20;12.30;;;;;;;14.13;100.00;154988.50;5036154;28;20778;-87
2022/10/08 02:25:31;;;;;;;13.60;11.47;;;;;;;14.14;100.00;154992.38;5035973;28;20775;-86
2022/10/08 02:28:06;;;;;;;16.47;12.20;;;;;;;14.14;100.00;154992.38;5001712;28;20427;-87
2022/10/08 02:30:37;;;;;;;12.20;11.00;;;;;;;14.14;100.00;154992.38;5035419;28;20439;-86
2022/10/08 02:33:10;;;;;;;12.20;11.00;;;;;;;14.14;100.00;154992.38;5017756;28;20498;-87
2022/10/08 02:35:40;;;;;;;12.80;11.50;;;;;;;14.17;100.00;154998.88;5035593;28;20442;-86
2022/10/08 02:38:10;;;;;;;12.97;11.63;;;;;;;14.14;100.00;154992.38;5035404;28;20511;-87
2022/10/08 02:40:39;;;;;;;14.60;11.87;;;;;;;14.13;100.00;154989.81;5035408;28;20494;-87
2022/10/08 02:43:09;;;;;;;16.13;10.90;;;;;;;14.14;100.00;154992.38;5017878;28;20436;-87
2022/10/08 02:45:39;;;;;;;14.80;11.30;;;;;;;14.12;100.00;154987.19;5017820;28;20436;-86
2022/10/08 02:48:11;;;;;;;14.20;11.20;;;;;;;14.12;100.00;154987.19;5017815;28;20427;-86
2022/10/08 02:50:40;;;;;;;16.10;11.20;;;;;;;14.10;100.00;154982.03;5035505;28;20440;-87
2022/10/08 02:53:07;;;;;;;12.70;11.40;;;;;;;14.07;100.00;154974.22;5035439;28;20428;-86
2022/10/08 02:55:38;;;;;;;13.10;11.53;;;;;;;14.07;100.00;154974.22;5041030;28;20473;-87
2022/10/08 02:58:06;;;;;;;13.17;10.70;;;;;;;14.08;100.00;154976.84;5037230;28;20528;-87
2022/10/08 03:00:37;;;;;;;12.20;10.90;;;;;;;14.07;100.00;154974.22;5055057;28;20470;-86
2022/10/08 03:03:10;;;;;;;13.03;11.50;;;;;;;14.06;100.00;154971.59;5054756;28;20887;-87
2022/10/08 03:05:38;;;;;;;14.40;11.17;;;;;;;14.08;100.00;154976.84;5052585;28;20431;-86
2022/10/08 03:08:06;;;;;;;14.60;11.87;;;;;;;14.07;100.00;154974.22;5017392;28;20863;-86
2022/10/08 03:10:34;;;;;;;12.43;10.90;;;;;;;14.07;100.00;154974.22;5017109;28;20452;-86
2022/10/08 03:13:01;;;;;;;13.03;10.77;;;;;;;14.06;100.00;154971.59;5034957;28;20942;-86
2022/10/08 03:15:28;;;;;;;11.63;10.43;;;;;;;14.05;100.00;154969.03;5027639;28;20438;-87
2022/10/08 03:17:55;;;;;;;11.73;10.27;;;;;;;14.02;100.00;154962.56;5054437;28;21004;-87
2022/10/08 03:20:25;;;;;;;17.93;9.20;;;;;;;14.02;100.00;154961.25;5020014;28;20427;-87
2022/10/08 03:22:54;;;;;;;13.03;10.50;;;;;;;14.00;100.00;154956.06;5054463;28;20435;-86
2022/10/08 03:25:20;;;;;;;11.23;10.03;;;;;;;13.96;100.00;154946.94;5036938;28;20529;-86
2022/10/08 03:27:50;;;;;;;10.67;9.57;;;;;;;13.97;100.00;154949.56;5056106;28;20427;-87
2022/10/08 03:30:16;;;;;;;13.80;10.00;;;;;;;13.94;100.00;154941.78;5064575;28;20419;-87
2022/10/08 03:32:43;;;;;;;13.73;10.83;;;;;;;13.96;100.00;154945.66;5066095;28;20450;-86
2022/10/08 03:35:10;;;;;;;12.70;10.20;;;;;;;13.99;100.00;154953.44;5033665;28;20456;-86
2022/10/08 03:37:38;;;;;;;12.17;10.43;;;;;;;14.00;100.00;154956.06;5034687;28;20467;-86
2022/10/08 03:40:06;;;;;;;11.40;10.20;;;;;;;14.00;100.00;154957.31;5000027;28;20447;-87
2022/10/08 03:42:33;;;;;;;13.13;10.43;;;;;;;14.01;100.00;154958.63;5052747;28;20457;-87
2022/10/08 03:45:00;;;;;;;11.50;10.30;;;;;;;14.00;100.00;154957.31;5053946;28;20443;-87
2022/10/08 03:47:26;;;;;;;12.40;10.77;;;;;;;14.02;100.00;154961.25;5036336;28;20439;-87
2022/10/08 03:49:53;;;;;;;10.53;9.40;;;;;;;14.04;100.00;154966.41;5036169;28;20427;-86
2022/10/08 03:52:20;;;;;;;12.77;10.67;;;;;;;14.04;100.00;154967.72;5036246;28;20435;-87
2022/10/08 03:54:48;;;;;;;14.90;10.80;;;;;;;14.07;100.00;154972.91;5035933;28;20435;-87
2022/10/08 03:57:14;;;;;;;10.97;9.70;;;;;;;14.09;100.00;154979.41;5035869;28;20574;-87
2022/10/08 03:59:41;;;;;;;14.77;10.90;;;;;;;14.11;100.00;154984.59;5019467;28;20564;-87
2022/10/08 04:02:08;;;;;;;11.80;10.10;;;;;;;14.12;100.00;154987.19;5019526;28;20929;-87
2022/10/08 04:04:34;;;;;;;13.13;9.63;;;;;;;14.11;100.00;154984.59;5035789;28;20538;-87
2022/10/08 04:07:01;;;;;;;12.10;10.27;;;;;;;14.14;100.00;154992.38;5035970;28;20461;-86
2022/10/08 04:09:28;;;;;;;12.60;10.20;;;;;;;14.13;100.00;154989.81;5008943;28;20563;-86
2022/10/08 04:11:56;;;;;;;11.47;10.27;;;;;;;14.14;100.00;154991.13;4999585;28;21208;-86
2022/10/08 04:14:22;;;;;;;14.07;10.50;;;;;;;14.09;100.00;154979.41;5022847;28;20531;-86
2022/10/08 04:16:49;;;;;;;10.50;9.40;;;;;;;14.11;100.00;154983.31;5015982;28;20519;-86
2022/10/08 04:19:16;;;;;;;16.10;10.93;;;;;;;14.12;100.00;154987.19;5048943;28;20466;-87
2022/10/08 04:21:43;;;;;;;11.10;9.73;;;;;;;14.12;100.00;154985.88;5019174;28;20561;-87
2022/10/08 04:24:10;;;;;;;11.73;9.00;;;;;;;14.10;100.00;154980.72;5019158;28;20442;-87
2022/10/08 04:26:36;;;;;;;11.63;9.10;;;;;;;14.12;100.00;154985.88;5035320;28;20451;-87
2022/10/08 04:29:07;;;;;;;10.60;9.10;;;;;;;14.09;100.00;154979.41;5019116;28;20470;-87
2022/10/08 04:31:33;;;;;;;10.00;9.00;;;;;;;14.08;100.00;154975.53;5035581;28;20469;-86
2022/10/08 04:34:00;;;;;;;13.17;9.13;;;;;;;14.05;100.00;154969.03;5019134;28;20433;-87
2022/10/08 04:36:27;;;;;;;10.60;9.50;;;;;;;14.06;100.00;154971.59;5035440;28;20538;-87
2022/10/08 04:38:53;;;;;;;11.37;10.17;;;;;;;14.07;100.00;154972.91;5035599;28;20473;-87
2022/10/08 04:41:23;;;;;;;10.53;8.60;;;;;;;14.08;100.00;154976.84;5035608;28;20526;-87
2022/10/08 04:43:50;;;;;;;10.70;9.20;;;;;;;14.08;100.00;154976.84;5035559;28;20431;-86
2022/10/08 04:46:20;;;;;;;13.13;9.43;;;;;;;14.08;100.00;154976.84;5032161;28;20549;-87
2022/10/08 04:48:48;;;;;;;12.47;9.30;;;;;;;14.08;100.00;154975.53;5023724;28;20518;-87
2022/10/08 04:51:15;;;;;;;12.10;8.00;;;;;;;14.11;100.00;154983.31;5018892;28;20443;-87
2022/10/08 04:53:42;;;;;;;11.07;9.60;;;;;;;14.09;100.00;154979.41;5018695;28;20426;-87
2022/10/08 04:56:12;;;;;;;9.77;8.50;;;;;;;14.09;100.00;154979.41;5035452;28;20478;-87
2022/10/08 04:58:38;;;;;;;10.30;9.30;;;;;;;14.08;100.00;154976.84;5035368;28;20826;-87
2022/10/08 05:01:06;;;;;;;11.83;10.17;;;;;;;14.11;100.00;154983.31;5018753;28;20453;-87
2022/10/08 05:03:37;;;;;;;12.27;10.23;;;;;;;14.11;100.00;154983.31;5018883;28;20801;-87
2022/10/08 05:06:04;;;;;;;12.30;9.10;;;;;;;14.11;100.00;154984.59;5036698;28;20442;-86
2022/10/08 05:08:31;;;;;;;11.27;9.70;;;;;;;14.10;100.00;154982.03;5018751;28;20427;-87
2022/10/08 05:10:58;;;;;;;11.50;9.57;;;;;;;14.11;100.00;154983.31;5035207;28;20455;-86
2022/10/08 05:13:24;;;;;;;11.53;10.10;;;;;;;14.11;100.00;154983.31;5035060;28;20478;-87
2022/10/08 05:15:51;;;;;;;18.40;10.67;;;;;;;14.07;100.00;154974.22;5018139;28;20447;-87
2022/10/08 05:18:18;;;;;;;12.90;9.07;;;;;;;14.05;100.00;154969.03;5018450;28;20462;-87
2022/10/08 05:20:46;;;;;;;10.60;8.63;;;;;;;14.02;100.00;154961.25;5018533;28;20443;-87
2022/10/08 05:23:12;;;;;;;13.13;9.27;;;;;;;14.01;100.00;154959.94;5035123;28;20462;-87
2022/10/08 05:25:39;;;;;;;12.00;8.83;;;;;;;14.00;100.00;154957.31;5035991;28;20530;-87
2022/10/08 05:28:06;;;;;;;10.07;9.03;;;;;;;13.98;100.00;154950.81;5014807;28;20453;-87
2022/10/08 05:30:32;;;;;;;14.77;9.33;;;;;;;13.96;100.00;154945.66;5029778;28;20443;-87
2022/10/08 05:32:59;;;;;;;9.70;8.23;;;;;;;13.91;100.00;154932.66;5024378;28;20444;-86
2022/10/08 05:35:25;;;;;;;9.37;7.77;;;;;;;13.90;100.00;154931.38;5025327;28;20452;-86
2022/10/08 05:37:54;;;;;;;9.40;8.43;;;;;;;13.85;100.00;154917.06;5013447;28;20475;-85
2022/10/08 05:40:23;;;;;;;9.67;8.73;;;;;;;13.84;100.00;154914.50;5027223;28;20925;-86
2022/10/08 05:42:52;;;;;;;10.70;8.23;;;;;;;13.82;100.00;154909.34;5039416;28;20934;-87
2022/10/08 05:45:19;;;;;;;10.00;7.73;;;;;;;13.80;100.00;154904.09;5056760;28;20465;-86
2022/10/08 05:47:49;;;;;;;14.70;8.00;;;;;;;13.80;100.00;154904.09;5019533;28;20455;-86
2022/10/08 05:50:16;;;;;;;12.53;8.83;;;;;;;13.79;100.00;154902.78;5018154;28;20856;-87
2022/10/08 05:52:43;;;;;;;9.57;7.50;;;;;;;13.79;100.00;154901.53;5038367;28;20443;-87
2022/10/08 05:55:11;;;;;;;13.33;8.03;;;;;;;13.77;100.00;154896.31;5047191;28;20933;-86
2022/10/08 05:57:38;;;;;;;9.00;7.77;;;;;;;13.77;100.00;154896.31;5040458;28;20438;-87
2022/10/08 06:00:05;;;;;;;9.57;8.27;;;;;;;13.76;100.00;154893.75;5056112;28;20441;-87
2022/10/08 06:02:38;;;;;;;10.33;7.63;;;;;;;13.78;100.00;154898.91;5057602;28;20427;-86
2022/10/08 06:05:05;;;;;;;9.43;8.33;;;;;;;13.74;100.00;154888.56;5022979;28;20443;-87
2022/10/08 06:07:31;;;;;;;9.60;8.60;;;;;;;13.75;100.00;154891.13;5038789;28;20442;-87
2022/10/08 06:09:58;;;;;;;9.93;8.13;;;;;;;13.74;100.00;154888.56;5056989;28;20443;-86
2022/10/08 06:12:26;;;;;;;7.63;6.87;;;;;;;13.76;100.00;154895.06;5038957;28;20533;-87
2022/10/08 06:14:53;;;;;;;10.67;7.57;;;;;;;13.78;100.00;154898.91;5055289;28;20455;-87
2022/10/08 06:17:21;;;;;;;10.47;6.63;;;;;;;13.80;100.00;154904.09;5024515;28;20530;-86
2022/10/08 06:19:48;;;;;;;13.77;7.97;;;;;;;13.81;100.00;154908.03;5021159;28;20480;-87
2022/10/08 06:22:14;;;;;;;8.63;6.93;;;;;;;13.81;100.00;154906.72;5020953;28;20854;-88
2022/10/08 06:24:41;;;;;;;9.63;7.30;;;;;;;13.83;100.00;154911.91;5016636;28;20554;-87
2022/10/08 06:27:08;;;;;;;8.97;6.60;;;;;;;13.84;100.00;154915.81;5018228;28;20443;-87
2022/10/08 06:29:36;;;;;;;8.90;7.50;;;;;;;13.87;100.00;154923.56;5025871;28;20447;-87
2022/10/08 06:32:02;;;;;;;9.20;7.47;;;;;;;13.86;100.00;154919.69;5021437;28;20449;-87
2022/10/08 06:34:29;;;;;;;12.23;7.40;;;;;;;13.88;100.00;154924.88;5053628;28;20822;-87
2022/10/08 06:36:55;;;;;;;8.87;7.30;;;;;;;13.90;100.00;154930.06;5053806;28;20717;-87
2022/10/08 06:39:22;;;;;;;10.27;7.67;;;;;;;13.91;100.00;154932.66;5033954;28;20471;-87
2022/10/08 06:41:49;;;;;;;8.97;7.47;;;;;;;13.97;100.00;154948.25;5037935;28;20537;-87
2022/10/08 06:44:17;;;;;;;10.17;7.80;;;;;;;14.01;100.00;154959.94;5020826;28;20877;-87
2022/10/08 06:46:45;;;;;;;12.57;7.53;;;;;;;14.11;100.00;154984.59;5011345;28;20451;-76
2022/10/08 06:49:12;;;;;;;10.07;7.90;;;;;;;14.20;100.00;155006.66;5049549;28;20862;-76
2022/10/08 06:51:39;;;;;;;12.43;6.60;;;;;;;14.34;100.00;155043.09;5046786;28;20558;-76
2022/10/08 06:54:06;;;;;;;7.63;6.83;;;;;;;14.44;100.00;155069.06;5039556;28;20498;-76
2022/10/08 06:56:34;;;;;;;10.27;7.23;;;;;;;14.55;100.00;155097.63;5049344;28;20478;-76
2022/10/08 06:59:01;;;;;;;11.17;6.63;;;;;;;14.67;100.00;155128.78;5031490;28;20478;-76
2022/10/08 07:01:28;;;;;;;7.33;6.30;;;;;;;14.79;100.00;155158.69;5049552;28;20837;-76
2022/10/08 07:03:58;;;;;;;10.50;6.50;;;;;;;15.00;100.00;155213.25;5048049;28;20455;-76
2022/10/08 07:06:25;;;;;;;8.73;6.97;;;;;;;15.10;100.00;155239.22;5047051;28;20557;-76
2022/10/08 07:08:53;;;;;;;8.23;5.77;;;;;;;15.33;100.00;155298.97;5047063;28;20805;-76
2022/10/08 07:11:20;;;;;;;7.97;5.90;;;;;;;15.48;100.00;155338.06;5022834;28;20479;-76
2022/10/08 07:13:47;;;;;;;9.50;5.80;;;;;;;15.61;100.00;155371.84;5049071;28;20541;-76
2022/10/08 07:16:15;;;;;;;7.90;6.03;;;;;;;15.64;100.00;155378.34;5050205;28;20840;-75
2022/10/08 07:18:45;;;;;;;9.67;4.93;;;;;;;15.65;100.00;155380.91;5038708;28;20557;-87
2022/10/08 07:21:16;;;;;;;6.20;4.77;;;;;;;15.79;100.00;155417.34;5036597;28;20450;-87
2022/10/08 07:23:43;;;;;;;6.37;4.80;;;;;;;15.93;97.61;155452.44;5032268;28;20868;-87
2022/10/08 07:26:13;;;;;;;7.60;4.53;;;;;;;15.93;95.65;155453.75;5012572;28;20480;-86
2022/10/08 07:28:44;;;;;;;8.57;5.07;;;;;;;16.14;100.00;155507.06;5035045;28;20492;-87
2022/10/08 07:31:13;;;;;;;6.33;4.60;;;;;;;16.09;97.60;155494.06;5034695;28;20461;-87
2022/10/08 07:33:40;;;;;;;9.10;5.07;;;;;;;16.25;96.48;155535.66;5060305;28;20459;-87
2022/10/08 07:36:09;;;;;;;7.97;5.10;;;;;;;16.26;95.63;155538.25;5025450;28;20462;-87
2022/10/08 07:38:37;;;;;;;7.77;5.00;;;;;;;16.51;97.60;155601.97;5058217;28;20482;-87
2022/10/08 07:41:04;;;;;;;6.50;5.10;;;;;;;16.62;94.22;155631.97;5036243;28;20497;-87
2022/10/08 07:43:31;;;;;;;8.00;4.60;;;;;;;16.67;92.76;155644.97;5053317;28;20443;-87
2022/10/08 07:45:57;;;;;;;5.50;5.00;;;;;;;16.61;90.72;155628.03;5050174;28;20490;-87
2022/10/08 07:48:24;;;;;;;6.73;5.07;;;;;;;16.64;91.63;155635.84;5058742;28;20933;-87
2022/10/08 07:50:51;;;;;;;5.80;4.53;;;;;;;16.75;91.84;155665.78;5049068;28;20463;-87
2022/10/08 07:53:17;;;;;;;4.97;4.23;;;;;;;16.95;92.40;155716.50;5033561;28;20538;-87
2022/10/08 07:55:45;;;;;;;5.23;4.07;;;;;;;16.96;86.52;155720.44;5037524;28;20500;-87
2022/10/08 07:58:13;;;;;;;4.47;3.20;;;;;;;17.13;85.32;155763.34;5051296;28;20439;-87
2022/10/08 08:00:40;;;;;;;7.43;4.63;;;;;;;16.96;81.47;155720.44;5035603;28;20486;-87
2022/10/08 08:03:06;;;;;;;4.80;4.30;;;;;;;16.96;80.72;155720.44;5044868;28;20457;-87
2022/10/08 08:05:34;;;;;;;4.40;3.80;;;;;;;16.77;85.41;155669.66;5049928;28;20461;-87
2022/10/08 08:08:01;;;;;;;5.67;4.53;;;;;;;16.54;83.83;155611.16;5049881;28;20956;-87
2022/10/08 08:10:28;;;;;;;6.20;4.47;;;;;;;16.67;87.92;155643.66;5048799;28;20543;-87
2022/10/08 08:12:57;;;;;;;4.80;4.07;;;;;;;16.74;85.42;155663.16;5030376;28;20462;-87
2022/10/08 08:15:26;;;;;;;5.77;4.43;;;;;;;16.77;86.67;155670.97;5036904;28;20528;-87
2022/10/08 08:17:53;;;;;;;7.00;4.03;;;;;;;16.86;87.09;155694.41;5029554;28;20447;-87
2022/10/08 08:20:19;;;;;;;5.00;4.00;;;;;;;16.65;85.92;155639.78;5048249;28;20832;-87
2022/10/08 08:22:46;;;;;;;7.90;4.70;;;;;;;16.67;88.44;155644.97;5049058;28;20489;-87
2022/10/08 08:25:13;;;;;;;5.10;4.33;;;;;;;16.58;84.90;155620.22;5051093;28;20451;-87
2022/10/08 08:27:39;;;;;;;7.30;5.23;;;;;;;16.41;84.55;155578.56;5047639;28;20537;-87
2022/10/08 08:30:09;;;;;;;7.40;4.67;;;;;;;16.43;86.27;155583.78;5049778;28;20442;-87
2022/10/08 08:32:35;;;;;;;6.60;4.33;;;;;;;16.44;86.75;155585.09;5031631;28;20865;-87
2022/10/08 08:35:02;;;;;;;8.10;5.00;;;;;;;16.54;87.28;155611.16;5027748;28;20446;-87
2022/10/08 08:37:29;;;;;;;8.97;5.17;;;;;;;16.41;85.87;155577.28;5034087;28;20797;-87
2022/10/08 08:39:55;;;;;;;5.70;4.47;;;;;;;16.35;88.86;155561.66;5030455;28;20484;-86
2022/10/08 08:42:38;;;;;;;7.07;3.93;;;;;;;16.33;87.39;155556.47;5031956;28;20463;-86
2022/10/08 08:45:24;;;;;;;6.50;4.30;;;;;;;16.18;87.03;155518.75;5023599;28;20513;-87
2022/10/08 08:48:01;;;;;;;6.23;4.27;;;;;;;16.15;86.97;155509.66;5023043;28;20837;-86
2022/10/08 08:50:29;;;;;;;6.40;3.93;;;;;;;16.01;84.82;155473.25;5051800;28;20537;-87
2022/10/08 08:52:56;;;;;;;6.40;3.70;;;;;;;16.05;85.10;155483.63;5029656;28;20451;-87
2022/10/08 08:55:33;;;;;;;3.70;3.10;;;;;;;16.02;84.67;155477.13;5049406;28;20478;-86
2022/10/08 08:58:09;;;;;;;5.47;3.33;;;;;;;15.89;82.56;155442.00;5045448;28;20537;-87
2022/10/08 09:00:40;;;;;;;8.43;4.10;;;;;;;15.84;81.84;155431.63;5030052;28;20482;-86
2022/10/08 09:03:13;;;;;;;8.93;3.43;;;;;;;15.94;80.89;155455.06;5034515;28;20545;-87
2022/10/08 09:05:42;;;;;;;6.30;3.10;;;;;;;15.84;79.33;155431.63;5036481;28;20553;-87
2022/10/08 09:08:15;;;;;;;7.20;3.50;;;;;;;15.97;84.57;155464.13;5033336;28;20458;-86
2022/10/08 09:10:45;;;;;;;6.40;2.80;;;;;;;16.08;79.95;155491.44;5053670;28;20941;-86
2022/10/08 09:13:15;;;;;;;5.90;3.13;;;;;;;16.19;78.24;155520.03;5058944;28;20451;-86
2022/10/08 09:15:45;;;;;;;6.27;3.30;;;;;;;16.22;75.76;155527.84;5053856;28;20457;-86
2022/10/08 09:18:13;;;;;;;5.00;3.20;;;;;;;16.11;76.14;155500.56;5051618;28;20447;-87
2022/10/08 09:20:40;;;;;;;4.83;3.03;;;;;;;16.10;78.16;155496.63;5031850;28;20474;-86
2022/10/08 09:23:12;;;;;;;7.77;4.00;;;;;;;16.13;78.08;155504.44;5032691;28;20480;-86
2022/10/08 09:25:40;;;;;;;5.80;3.13;;;;;;;16.10;76.25;155496.63;5034290;28;20951;-87
2022/10/08 09:28:07;;;;;;;5.27;2.77;;;;;;;16.04;75.60;155481.06;5024638;28;20447;-86
2022/10/08 09:30:36;;;;;;;6.23;2.77;;;;;;;16.02;77.21;155477.13;5053396;28;20446;-87
2022/10/08 09:33:15;;;;;;;4.83;3.60;;;;;;;16.19;79.71;155520.03;5053227;28;20825;-87
2022/10/08 09:35:43;;;;;;;7.00;3.33;;;;;;;16.14;78.71;155507.06;5053355;28;20466;-86
2022/10/08 09:38:20;;;;;;;8.10;3.13;;;;;;;16.14;75.33;155507.06;5053967;28;20443;-86
2022/10/08 09:40:59;;;;;;;4.60;2.93;;;;;;;16.18;77.79;155517.44;5041015;28;20482;-86
2022/10/08 09:43:26;;;;;;;5.17;2.90;;;;;;;16.19;81.00;155521.38;5042066;28;20471;-87
2022/10/08 09:45:53;;;;;;;4.40;2.90;;;;;;;16.25;78.88;155535.66;5056086;28;20462;-87
2022/10/08 09:48:24;;;;;;;6.20;3.03;;;;;;;16.26;75.12;155538.25;5032575;28;20450;-86
2022/10/08 09:50:53;;;;;;;6.33;3.03;;;;;;;16.23;77.87;155530.47;5053777;28;20450;-86
2022/10/08 09:53:21;;;;;;;8.20;3.80;;;;;;;16.30;75.87;155548.66;5030492;28;20804;-86
2022/10/08 09:55:55;;;;;;;4.70;3.00;;;;;;;16.34;76.83;155559.06;5022792;28;21382;-86
2022/10/08 09:58:22;;;;;;;5.97;3.60;;;;;;;16.36;82.02;155564.28;5030442;28;20504;-87
2022/10/08 10:00:57;;;;;;;5.13;2.90;;;;;;;16.33;77.96;155557.78;5049852;28;20473;-87
2022/10/08 10:03:26;;;;;;;4.63;2.50;;;;;;;16.27;75.13;155540.84;5030061;28;20557;-86
2022/10/08 10:05:54;;;;;;;4.70;2.33;;;;;;;16.26;74.56;155538.25;5027719;28;20470;-86
2022/10/08 10:08:45;;;;;;;3.90;2.50;;;;;;;16.32;74.46;155553.84;5050852;28;20447;-86
2022/10/08 10:11:14;;;;;;;4.50;2.50;;;;;;;16.48;76.39;155595.47;5044177;28;20447;-86
2022/10/08 10:13:42;;;;;;;7.50;3.47;;;;;;;16.61;74.86;155629.34;5047064;28;20455;-86
2022/10/08 10:16:12;;;;;;;4.93;2.70;;;;;;;16.44;72.17;155586.38;5016374;28;20553;-86
2022/10/08 10:18:48;;;;;;;10.03;3.03;;;;;;;16.42;71.69;155579.88;5029858;28;22071;-86
2022/10/08 10:21:18;;;;;;;3.70;2.90;;;;;;;16.34;72.83;155559.06;5030487;28;20455;-86
2022/10/08 10:23:49;;;;;;;5.93;2.63;;;;;;;16.40;74.22;155574.66;5045590;28;20826;-86
2022/10/08 10:26:20;;;;;;;6.13;3.03;;;;;;;16.33;71.13;155556.47;5047615;28;20451;-86
2022/10/08 10:28:51;;;;;;;5.20;2.80;;;;;;;16.35;72.72;155561.66;5047641;28;20447;-86
2022/10/08 10:31:19;;;;;;;5.07;3.00;;;;;;;16.48;72.48;155595.47;5028168;28;20927;-86
2022/10/08 10:33:49;;;;;;;5.50;2.73;;;;;;;16.57;74.42;155618.97;5024407;28;20458;-86
2022/10/08 10:36:17;;;;;;;4.47;2.87;;;;;;;16.63;71.52;155634.53;5031982;28;20455;-86
2022/10/08 10:38:49;;;;;;;4.23;2.60;;;;;;;16.65;70.88;155639.78;5050110;28;20451;-86
2022/10/08 10:41:22;;;;;;;6.00;2.53;;;;;;;16.56;70.78;155616.34;5030871;28;20875;-86
2022/10/08 10:43:51;;;;;;;4.70;3.10;;;;;;;16.47;74.20;155591.59;5043108;28;20542;-86
2022/10/08 10:46:30;;;;;;;6.37;3.10;;;;;;;16.52;71.74;155604.59;5048039;28;20459;-86
2022/10/08 10:48:58;;;;;;;4.80;2.83;;;;;;;16.60;74.44;155626.72;5024057;28;20533;-85
2022/10/08 10:51:33;;;;;;;6.13;3.23;;;;;;;16.64;71.85;155637.16;5048770;28;20802;-86
2022/10/08 10:54:08;;;;;;;6.07;2.57;;;;;;;16.58;70.49;155621.53;5045868;28;20812;-86
2022/10/08 10:56:37;;;;;;;4.87;3.57;;;;;;;16.54;72.54;155611.16;5046489;28;20543;-86
2022/10/08 10:59:27;;;;;;;4.47;3.40;;;;;;;16.51;72.95;155603.28;5053715;28;20455;-85
2022/10/08 11:01:58;;;;;;;4.17;3.20;;;;;;;16.55;72.58;155613.72;5044461;28;20554;-86
2022/10/08 11:04:37;;;;;;;3.90;2.50;;;;;;;16.55;72.49;155613.72;5045415;28;20447;-85
2022/10/08 11:07:08;;;;;;;5.53;2.90;;;;;;;16.61;70.67;155629.34;5047945;28;20443;-86
2022/10/08 11:09:41;;;;;;;9.03;2.13;;;;;;;16.57;71.53;155617.66;5029607;28;20446;-85
2022/10/08 11:12:17;;;;;;;6.90;3.10;;;;;;;16.48;70.46;155595.47;5046239;28;20489;-85
2022/10/08 11:14:52;;;;;;;7.17;2.60;;;;;;;16.42;70.15;155579.88;5047108;28;20913;-86
2022/10/08 11:17:31;;;;;;;5.10;2.67;;;;;;;16.45;72.66;155587.66;5027997;28;22734;-86
2022/10/08 11:20:11;;;;;;;4.53;2.50;;;;;;;16.47;72.07;155592.88;5028191;28;20478;-85